Time;durP1;ratioP1;P1;durP2;ratioP2;P2;SDS_P1;SDS_P2;PMS_P1;PMS_P2;Temp;Humidity;BMP_temperature;BMP_pressure;BME280_temperature;BME280_humidity;BME280_pressure;Samples;Min_cycle;Max_cycle;Signal;HPM_P1;HPM_P2
2022/08/20 00:00:15;;;;;;;12.25;6.18;;;;;;;24.85;62.41;99726.13;6039367;23;100534;-82
2022/08/20 00:02:43;;;;;;;12.90;5.60;;;;;;;25.04;61.88;99719.66;6039099;23;96671;-82
2022/08/20 00:05:09;;;;;;;9.70;5.28;;;;;;;25.11;62.26;99727.94;6064807;23;96921;-82
2022/08/20 00:07:34;;;;;;;14.00;5.90;;;;;;;25.14;61.80;99703.50;6014492;23;101226;-83
2022/08/20 00:10:00;;;;;;;14.88;5.22;;;;;;;24.96;61.98;99699.00;6064215;23;97893;-82
2022/08/20 00:12:25;;;;;;;10.68;5.15;;;;;;;24.94;62.19;99694.78;6039184;23;96627;-82
2022/08/20 00:14:51;;;;;;;11.45;4.95;;;;;;;25.17;61.77;99728.16;6064655;23;97132;-82
2022/08/20 00:17:16;;;;;;;8.13;5.35;;;;;;;25.08;62.07;99727.25;6039236;23;97604;-82
2022/08/20 00:19:42;;;;;;;9.57;4.72;;;;;;;25.12;61.93;99729.63;6039226;23;97967;-83
2022/08/20 00:22:07;;;;;;;8.73;5.43;;;;;;;25.14;62.17;99730.34;6015672;23;96590;-83
2022/08/20 00:24:33;;;;;;;10.32;4.70;;;;;;;25.22;61.79;99741.97;6039168;23;96643;-83
2022/08/20 00:26:59;;;;;;;9.27;6.07;;;;;;;25.18;62.21;99755.84;6063522;23;98130;-82
2022/08/20 00:29:25;;;;;;;11.57;5.38;;;;;;;25.10;61.79;99734.28;6014696;23;101750;-84
2022/08/20 00:31:51;;;;;;;8.85;5.05;;;;;;;25.13;61.93;99742.03;6039887;23;96827;-82
2022/08/20 00:34:16;;;;;;;10.65;5.15;;;;;;;25.14;62.20;99731.19;6040117;23;96829;-82
2022/08/20 00:36:42;;;;;;;12.90;5.63;;;;;;;25.02;62.46;99727.06;6038287;23;97851;-82
2022/08/20 00:39:08;;;;;;;10.80;5.80;;;;;;;25.11;62.20;99734.16;6039459;23;102064;-83
2022/08/20 00:41:33;;;;;;;14.48;4.93;;;;;;;25.04;62.54;99741.97;6038458;23;97545;-82
2022/08/20 00:44:11;;;;;;;10.68;4.95;;;;;;;25.04;62.53;99746.50;6040040;23;96926;-83
2022/08/20 00:46:38;;;;;;;8.18;5.03;;;;;;;25.10;62.28;99753.94;6063708;23;97511;-82
2022/08/20 00:49:07;;;;;;;12.10;5.15;;;;;;;25.05;62.37;99745.53;6064428;23;97928;-82
2022/08/20 00:51:56;;;;;;;9.20;5.72;;;;;;;25.03;62.72;99742.16;6015145;23;96728;-82
2022/08/20 00:54:38;;;;;;;10.65;5.97;;;;;;;25.03;62.65;99736.78;6039755;23;97082;-83
2022/08/20 00:57:08;;;;;;;9.23;5.15;;;;;;;25.17;62.31;99743.44;6014822;23;101168;-82
2022/08/20 00:59:36;;;;;;;15.98;7.10;;;;;;;25.11;62.33;99739.53;6038450;23;101752;-83
2022/08/20 01:02:04;;;;;;;18.23;10.05;;;;;;;25.11;62.28;99752.94;6039844;23;96967;-82
2022/08/20 01:04:33;;;;;;;17.05;11.43;;;;;;;25.13;62.13;99750.09;6038608;23;97025;-82
2022/08/20 01:06:59;;;;;;;14.82;12.38;;;;;;;25.11;62.11;99744.88;6038665;23;101338;-82
2022/08/20 01:09:25;;;;;;;20.17;12.52;;;;;;;25.05;62.47;99748.22;6038898;23;100755;-83
2022/08/20 01:11:50;;;;;;;14.98;11.15;;;;;;;25.10;62.14;99763.84;6063893;23;97099;-83
2022/08/20 01:16:50;;;;;;;17.45;9.25;;;;;;;24.99;62.45;99778.38;6039642;23;101554;-82
2022/08/20 01:19:19;;;;;;;12.43;9.07;;;;;;;24.96;62.72;99776.84;6039326;23;100902;-84
2022/08/20 01:21:44;;;;;;;14.32;9.10;;;;;;;24.97;62.72;99772.31;6063688;23;97164;-82
2022/08/20 01:24:26;;;;;;;17.52;10.20;;;;;;;24.97;62.90;99766.97;6016041;23;96804;-83
2022/08/20 01:26:54;;;;;;;13.65;7.78;;;;;;;24.81;62.94;99755.13;6063685;23;98146;-82
2022/08/20 01:29:23;;;;;;;14.80;8.73;;;;;;;24.93;62.59;99773.63;6038980;23;101328;-82
2022/08/20 01:31:48;;;;;;;11.50;7.50;;;;;;;24.82;62.83;99766.69;6038039;23;96726;-83
2022/08/20 01:34:17;;;;;;;14.77;8.38;;;;;;;24.89;62.85;99772.25;6063291;23;97158;-82
2022/08/20 01:36:49;;;;;;;13.45;8.15;;;;;;;24.77;62.75;99752.91;6062230;23;98675;-82
2022/08/20 01:39:22;;;;;;;11.52;6.65;;;;;;;24.80;62.96;99748.06;6015162;23;101216;-83
2022/08/20 01:41:55;;;;;;;10.43;6.20;;;;;;;24.87;62.73;99759.03;6039091;23;97207;-82
2022/08/20 01:44:21;;;;;;;9.30;6.53;;;;;;;24.79;62.78;99753.59;6039499;23;96979;-83
2022/08/20 01:46:49;;;;;;;10.98;6.95;;;;;;;24.88;63.01;99760.69;6014691;23;101355;-83
2022/08/20 01:49:22;;;;;;;9.63;6.68;;;;;;;24.82;62.93;99764.00;6015581;23;101626;-83
2022/08/20 01:51:48;;;;;;;13.07;6.82;;;;;;;24.82;62.93;99750.59;6039473;23;96818;-82
2022/08/20 01:54:14;;;;;;;10.73;6.20;;;;;;;24.76;63.17;99735.13;6039081;23;97220;-82
2022/08/20 01:57:00;;;;;;;10.45;6.60;;;;;;;24.78;63.12;99727.72;6037281;23;102105;-83
2022/08/20 01:59:26;;;;;;;9.02;6.72;;;;;;;24.75;63.42;99728.06;6038697;23;101500;-84
2022/08/20 02:01:53;;;;;;;13.93;7.10;;;;;;;24.69;63.51;99717.94;6038887;23;97189;-82
2022/08/20 02:04:19;;;;;;;13.95;6.47;;;;;;;24.78;63.39;99717.00;6015052;23;96815;-82
2022/08/20 02:06:51;;;;;;;11.45;6.97;;;;;;;24.76;63.50;99730.59;6038113;23;101478;-83
2022/08/20 02:09:18;;;;;;;9.57;6.05;;;;;;;24.74;63.44;99708.44;6038675;23;101623;-84
2022/08/20 02:11:45;;;;;;;10.13;6.00;;;;;;;24.68;63.58;99714.44;6014415;23;97139;-82
2022/08/20 02:14:10;;;;;;;11.93;6.20;;;;;;;24.71;63.90;99716.78;6039391;23;96846;-83
2022/08/20 02:16:39;;;;;;;9.35;5.72;;;;;;;24.73;63.85;99722.03;6013848;23;101589;-82
2022/08/20 02:19:19;;;;;;;16.50;6.82;;;;;;;24.72;64.18;99720.31;6039541;23;98017;-83
2022/08/20 02:21:49;;;;;;;13.52;7.00;;;;;;;24.66;64.50;99707.53;6038893;23;96700;-82
2022/08/20 02:24:14;;;;;;;13.23;6.32;;;;;;;24.59;64.54;99697.44;6063569;23;97204;-83
2022/08/20 02:26:40;;;;;;;11.80;6.80;;;;;;;24.68;64.44;99709.06;6013239;23;101625;-82
2022/08/20 02:29:09;;;;;;;11.70;6.10;;;;;;;24.63;64.54;99697.97;6038819;23;101246;-82
2022/08/20 02:31:36;;;;;;;11.35;7.07;;;;;;;24.70;64.23;99709.75;6062153;23;96737;-83
2022/08/20 02:34:03;;;;;;;15.15;8.68;;;;;;;24.73;64.36;99716.66;6038893;23;97112;-82
2022/08/20 02:36:29;;;;;;;15.40;9.73;;;;;;;24.71;64.52;99718.66;6014039;23;101467;-84
2022/08/20 02:38:55;;;;;;;19.15;8.63;;;;;;;24.67;64.48;99731.53;6039354;23;98358;-83
2022/08/20 02:41:20;;;;;;;12.43;9.48;;;;;;;24.68;64.72;99737.75;6039461;23;96895;-83
2022/08/20 02:43:48;;;;;;;15.77;12.73;;;;;;;24.73;64.39;99725.53;6014913;23;97145;-82
2022/08/20 02:46:14;;;;;;;14.65;12.48;;;;;;;24.67;64.54;99710.06;6038538;23;97372;-82
2022/08/20 02:48:40;;;;;;;15.90;13.30;;;;;;;24.76;64.49;99710.97;6062660;23;101269;-82
2022/08/20 02:51:07;;;;;;;16.67;14.00;;;;;;;24.69;64.71;99699.16;6063578;23;96968;-83
2022/08/20 02:53:35;;;;;;;17.83;14.10;;;;;;;24.61;64.67;99694.59;6013865;23;96953;-82
2022/08/20 02:56:01;;;;;;;19.35;14.63;;;;;;;24.71;64.73;99698.00;6037893;23;101581;-83
2022/08/20 02:58:27;;;;;;;17.05;15.15;;;;;;;24.69;64.74;99700.00;6015306;23;100125;-82
2022/08/20 03:00:53;;;;;;;18.45;15.93;;;;;;;24.59;65.10;99693.91;6039971;23;97150;-83
2022/08/20 03:03:23;;;;;;;18.58;16.65;;;;;;;24.66;64.83;99681.53;6040613;23;96839;-84
2022/08/20 03:05:51;;;;;;;19.50;17.25;;;;;;;24.62;65.02;99678.34;6040139;23;98256;-82
2022/08/20 03:08:16;;;;;;;19.70;17.52;;;;;;;24.52;65.28;99684.78;6039301;23;101137;-82
2022/08/20 03:10:44;;;;;;;20.27;16.65;;;;;;;24.63;65.29;99695.28;6038529;23;97085;-82
2022/08/20 03:13:11;;;;;;;19.02;16.48;;;;;;;24.56;65.05;99678.97;6064080;23;97105;-82
2022/08/20 03:15:39;;;;;;;22.55;18.42;;;;;;;24.65;65.22;99705.84;6039421;23;100640;-82
2022/08/20 03:18:04;;;;;;;22.02;19.75;;;;;;;24.60;65.19;99719.72;6039202;23;101806;-82
2022/08/20 03:20:30;;;;;;;22.40;19.70;;;;;;;24.51;65.49;99726.88;6039549;23;96932;-83
2022/08/20 03:22:56;;;;;;;21.30;19.20;;;;;;;24.51;65.45;99731.41;6039749;23;96980;-82
2022/08/20 03:25:22;;;;;;;21.95;19.58;;;;;;;24.52;65.50;99725.91;6015032;23;101105;-82
2022/08/20 03:27:48;;;;;;;22.50;20.30;;;;;;;24.50;65.46;99729.75;6015067;23;101102;-83
2022/08/20 03:30:15;;;;;;;25.23;21.55;;;;;;;24.42;65.42;99718.91;6040477;23;97123;-82
2022/08/20 03:32:41;;;;;;;23.80;21.27;;;;;;;24.53;65.38;99722.22;5989081;23;96818;-82
2022/08/20 03:35:09;;;;;;;24.98;21.85;;;;;;;24.53;65.43;99716.84;6010256;23;101076;-82
2022/08/20 03:37:35;;;;;;;22.63;20.27;;;;;;;24.48;65.67;99726.34;5985353;23;101432;-83
2022/08/20 03:40:05;;;;;;;25.75;22.70;;;;;;;24.47;65.76;99730.88;5987174;23;97101;-82
2022/08/20 03:42:30;;;;;;;26.13;22.50;;;;;;;24.42;65.79;99727.78;6010154;23;96856;-82
2022/08/20 03:44:55;;;;;;;27.23;22.80;;;;;;;24.45;65.80;99729.34;5986904;23;101184;-83
2022/08/20 03:47:22;;;;;;;25.20;22.60;;;;;;;24.45;65.66;99722.16;6010865;23;101206;-81
2022/08/20 03:49:49;;;;;;;27.52;23.13;;;;;;;24.37;65.82;99708.63;5987414;23;96596;-81
2022/08/20 03:52:16;;;;;;;24.85;22.38;;;;;;;24.38;65.97;99715.69;6011267;23;96882;-82
2022/08/20 03:54:44;;;;;;;24.48;21.85;;;;;;;24.43;66.04;99721.44;5985667;23;101456;-81
2022/08/20 03:57:14;;;;;;;25.10;22.70;;;;;;;24.42;65.75;99719.75;5985970;23;101177;-82
2022/08/20 03:59:41;;;;;;;24.95;22.27;;;;;;;24.31;66.24;99703.91;5984932;23;97229;-81
2022/08/20 04:02:06;;;;;;;25.52;22.80;;;;;;;24.34;66.20;99707.09;5986184;23;97212;-81
2022/08/20 04:04:33;;;;;;;25.48;22.77;;;;;;;24.41;65.88;99704.66;5985188;23;100802;-84
2022/08/20 04:06:58;;;;;;;26.30;23.55;;;;;;;24.24;66.40;99684.06;5984360;23;100775;-82
2022/08/20 04:09:24;;;;;;;26.80;24.10;;;;;;;24.33;66.08;99702.75;5985539;23;97166;-82
2022/08/20 04:11:49;;;;;;;29.77;24.48;;;;;;;24.37;65.93;99704.09;6033997;23;97119;-82
2022/08/20 04:14:15;;;;;;;26.48;22.70;;;;;;;24.39;65.96;99703.97;5986189;23;101920;-82
2022/08/20 04:16:40;;;;;;;26.40;23.80;;;;;;;24.34;66.19;99711.63;6009694;23;97472;-81
2022/08/20 04:19:06;;;;;;;28.40;23.88;;;;;;;24.33;66.16;99716.16;6035127;23;97045;-81
2022/08/20 04:21:34;;;;;;;27.42;24.60;;;;;;;24.31;66.24;99723.50;5985464;23;97038;-83
2022/08/20 04:24:01;;;;;;;26.63;24.05;;;;;;;24.25;66.14;99705.34;6009090;23;97409;-82
2022/08/20 04:26:27;;;;;;;30.90;25.10;;;;;;;24.26;66.17;99722.28;6010285;23;98403;-81
2022/08/20 04:28:54;;;;;;;25.83;23.02;;;;;;;24.31;66.21;99736.06;6010153;23;96798;-81
2022/08/20 04:31:20;;;;;;;27.60;24.25;;;;;;;24.30;66.37;99732.56;6021093;23;96808;-82
2022/08/20 04:33:45;;;;;;;29.17;25.42;;;;;;;24.35;66.17;99748.19;6038521;23;97496;-81
2022/08/20 04:36:12;;;;;;;28.55;25.48;;;;;;;24.28;66.21;99761.34;6015141;23;102081;-81
2022/08/20 04:38:38;;;;;;;31.65;26.60;;;;;;;24.30;66.27;99767.41;6039118;23;96613;-81
2022/08/20 04:41:05;;;;;;;27.30;24.38;;;;;;;24.31;66.11;99750.31;6016030;23;96819;-81
2022/08/20 04:43:34;;;;;;;27.95;25.10;;;;;;;24.30;66.24;99763.91;6038984;23;101536;-81
2022/08/20 04:46:04;;;;;;;29.08;26.00;;;;;;;24.26;66.31;99741.91;6089868;23;97834;-81
2022/08/20 04:48:30;;;;;;;28.97;25.63;;;;;;;24.31;66.17;99750.31;6015997;23;97297;-81
2022/08/20 04:50:56;;;;;;;28.80;25.00;;;;;;;24.35;66.12;99754.41;6039877;23;96992;-81
2022/08/20 04:53:24;;;;;;;29.02;25.15;;;;;;;24.40;66.08;99754.78;6038876;23;100335;-81
2022/08/20 04:55:51;;;;;;;29.88;26.67;;;;;;;24.34;66.24;99738.44;6038123;23;101283;-81
2022/08/20 04:58:23;;;;;;;29.63;26.50;;;;;;;24.35;66.10;99750.88;6064233;23;96983;-83
2022/08/20 05:00:54;;;;;;;29.77;26.48;;;;;;;24.31;65.97;99762.88;6015210;23;97078;-81
2022/08/20 05:03:21;;;;;;;27.88;25.00;;;;;;;24.18;66.23;99757.94;6014760;23;100662;-81
2022/08/20 05:05:46;;;;;;;26.98;24.08;;;;;;;24.19;66.25;99764.97;6038533;23;101244;-84
2022/08/20 05:08:13;;;;;;;27.77;25.00;;;;;;;24.36;66.21;99779.38;6039480;23;96637;-84
2022/08/20 05:10:40;;;;;;;28.98;26.13;;;;;;;24.41;65.84;99766.34;6014602;23;96799;-81
2022/08/20 05:13:07;;;;;;;32.00;25.85;;;;;;;24.32;65.88;99761.91;6013922;23;101768;-81
2022/08/20 05:15:33;;;;;;;29.55;25.58;;;;;;;24.30;65.95;99764.75;6038791;23;100967;-82
2022/08/20 05:18:01;;;;;;;28.10;24.98;;;;;;;24.38;65.80;99766.66;6039218;23;96712;-81
2022/08/20 05:20:30;;;;;;;28.42;25.42;;;;;;;24.45;65.85;99773.09;6039667;23;97103;-81
2022/08/20 05:22:59;;;;;;;29.10;26.02;;;;;;;24.53;65.57;99773.19;6013963;23;101900;-81
2022/08/20 05:25:28;;;;;;;30.60;25.90;;;;;;;24.60;65.07;99762.66;6038422;23;101173;-82
2022/08/20 05:27:59;;;;;;;29.10;25.98;;;;;;;24.69;65.20;99769.78;6063142;23;96732;-82
2022/08/20 05:30:32;;;;;;;32.78;27.13;;;;;;;24.71;64.92;99762.41;6040589;23;96756;-82
2022/08/20 05:32:59;;;;;;;27.63;24.30;;;;;;;24.77;64.92;99763.63;6034574;23;98487;-81
2022/08/20 05:35:25;;;;;;;26.50;23.77;;;;;;;24.78;64.76;99757.25;6009569;23;97332;-81
2022/08/20 05:37:50;;;;;;;27.48;24.65;;;;;;;24.74;65.16;99761.25;5984915;23;97337;-83
2022/08/20 05:40:15;;;;;;;28.13;25.17;;;;;;;24.73;64.76;99754.22;6010595;23;96839;-82
2022/08/20 05:42:42;;;;;;;28.50;23.58;;;;;;;24.59;65.10;99744.88;6009340;23;97482;-83
2022/08/20 05:45:08;;;;;;;32.20;24.92;;;;;;;24.70;65.28;99760.75;6009691;23;101380;-82
2022/08/20 05:47:37;;;;;;;27.42;23.92;;;;;;;24.65;65.38;99757.69;6033122;23;96651;-83
2022/08/20 05:50:04;;;;;;;30.00;24.77;;;;;;;24.67;65.31;99769.09;6010613;23;97287;-82
2022/08/20 05:52:30;;;;;;;28.10;25.08;;;;;;;24.60;65.46;99766.19;6009491;23;97367;-81
2022/08/20 05:54:55;;;;;;;29.15;25.15;;;;;;;24.72;65.15;99760.56;6010385;23;101308;-81
2022/08/20 05:57:21;;;;;;;28.50;25.35;;;;;;;24.81;65.15;99755.13;5986741;23;97132;-81
2022/08/20 05:59:47;;;;;;;29.25;24.95;;;;;;;24.81;65.22;99749.75;6035097;23;96732;-80
2022/08/20 06:04:57;;;;;;;30.65;24.73;;;;;;;24.80;64.98;99758.78;6013613;23;101372;-81
2022/08/20 06:07:22;;;;;;;28.63;25.63;;;;;;;24.78;65.04;99749.19;5986061;23;97170;-81
2022/08/20 06:09:48;;;;;;;28.30;25.17;;;;;;;24.83;65.17;99761.16;6033592;23;96974;-81
2022/08/20 06:12:15;;;;;;;26.90;24.00;;;;;;;24.87;65.03;99760.84;6033322;23;98083;-81
2022/08/20 06:14:41;;;;;;;28.25;25.25;;;;;;;24.96;65.06;99770.63;6008647;23;100902;-82
2022/08/20 06:17:10;;;;;;;27.38;24.55;;;;;;;24.97;65.09;99767.78;6009551;23;97035;-82
2022/08/20 06:19:36;;;;;;;32.83;26.00;;;;;;;24.99;65.39;99775.69;5986232;23;96897;-78
2022/08/20 06:22:02;;;;;;;40.30;27.05;;;;;;;24.91;65.39;99783.69;6032825;23;98040;-81
2022/08/20 06:24:27;;;;;;;29.75;24.70;;;;;;;24.77;65.66;99787.78;5984484;23;100495;-79
2022/08/20 06:26:57;;;;;;;32.72;25.83;;;;;;;24.91;65.46;99776.47;6008028;23;96681;-81
2022/08/20 06:29:23;;;;;;;31.63;25.87;;;;;;;24.96;65.28;99784.03;6010115;23;96791;-83
2022/08/20 06:31:48;;;;;;;26.45;23.60;;;;;;;25.02;65.07;99776.22;6010840;23;97814;-88
2022/08/20 06:34:14;;;;;;;27.83;24.67;;;;;;;25.06;65.33;99787.47;6031995;23;97840;-85
2022/08/20 06:36:39;;;;;;;28.23;23.25;;;;;;;24.99;65.14;99786.44;6010375;23;96635;-86
2022/08/20 06:39:05;;;;;;;29.00;24.52;;;;;;;24.96;65.41;99774.16;5987341;23;96934;-87
2022/08/20 06:41:31;;;;;;;29.25;21.63;;;;;;;25.11;64.91;99766.38;6010346;23;101203;-85
2022/08/20 06:43:56;;;;;;;28.27;23.55;;;;;;;25.14;64.87;99787.56;6010638;23;97076;-86
2022/08/20 06:46:22;;;;;;;26.70;23.30;;;;;;;25.22;64.54;99792.13;5986031;23;97083;-90
2022/08/20 06:48:49;;;;;;;28.55;23.77;;;;;;;25.24;64.73;99793.66;6034916;23;96692;-87
2022/08/20 06:51:14;;;;;;;28.42;22.95;;;;;;;25.13;65.02;99780.47;6009217;23;101654;-87
2022/08/20 06:53:40;;;;;;;32.00;23.92;;;;;;;25.26;64.39;99782.75;6034293;23;97769;-86
2022/08/20 06:56:05;;;;;;;27.02;23.40;;;;;;;25.19;64.39;99774.50;6010696;23;96969;-87
2022/08/20 06:58:31;;;;;;;26.13;23.38;;;;;;;25.30;64.20;99770.69;6010544;23;96949;-86
2022/08/20 07:00:57;;;;;;;32.50;24.23;;;;;;;25.34;63.90;99780.13;5985675;23;101381;-79
2022/08/20 07:03:22;;;;;;;31.73;25.20;;;;;;;25.41;63.70;99765.03;5984953;23;101302;-79
2022/08/20 07:05:48;;;;;;;28.55;23.23;;;;;;;25.35;63.74;99763.00;5987144;23;97179;-80
2022/08/20 07:08:17;;;;;;;28.00;25.17;;;;;;;25.49;63.49;99765.06;6012740;23;97090;-80
2022/08/20 07:10:43;;;;;;;30.98;26.65;;;;;;;25.61;63.33;99759.41;6012169;23;97867;-81
2022/08/20 07:13:10;;;;;;;30.85;24.92;;;;;;;25.72;62.93;99772.56;5987830;23;100718;-81
2022/08/20 07:15:37;;;;;;;30.05;25.67;;;;;;;25.70;63.35;99774.56;5987893;23;96896;-83
2022/08/20 07:18:04;;;;;;;34.55;28.52;;;;;;;25.81;63.35;99773.41;6012288;23;97023;-79
2022/08/20 07:20:32;;;;;;;32.63;27.80;;;;;;;25.73;63.27;99766.16;6035686;23;101223;-81
2022/08/20 07:22:59;;;;;;;30.60;27.23;;;;;;;25.92;63.08;99778.53;6010575;23;101596;-80
2022/08/20 07:25:25;;;;;;;34.40;28.35;;;;;;;25.89;63.06;99781.50;6011373;23;97234;-80
2022/08/20 07:27:51;;;;;;;28.80;25.70;;;;;;;25.67;62.96;99759.59;5987738;23;96913;-83
2022/08/20 07:33:10;;;;;;;29.23;25.00;;;;;;;25.70;63.15;99775.38;6012921;23;100531;-86
2022/08/20 07:35:35;;;;;;;30.45;24.52;;;;;;;25.70;62.69;99767.31;6007810;23;96694;-87
2022/08/20 07:38:01;;;;;;;26.77;23.92;;;;;;;25.74;62.46;99775.91;6008468;23;97086;-87
2022/08/20 07:40:29;;;;;;;29.50;23.73;;;;;;;25.84;62.17;99778.50;6007759;23;100331;-87
2022/08/20 07:42:57;;;;;;;27.10;22.25;;;;;;;26.04;61.85;99763.75;6009795;23;100144;-87
2022/08/20 07:45:23;;;;;;;28.10;22.38;;;;;;;26.17;61.86;99757.88;6011868;23;97046;-86
2022/08/20 07:47:51;;;;;;;29.33;23.35;;;;;;;26.15;61.45;99766.13;5986773;23;97096;-87
2022/08/20 07:50:19;;;;;;;27.50;23.05;;;;;;;26.37;61.22;99761.94;6010714;23;100204;-87
2022/08/20 07:52:45;;;;;;;28.45;23.83;;;;;;;26.17;60.99;99769.47;6008869;23;100758;-87
2022/08/20 07:55:13;;;;;;;26.02;23.23;;;;;;;26.11;61.57;99763.94;5984394;23;96834;-88
2022/08/20 07:57:39;;;;;;;25.48;22.17;;;;;;;26.26;61.30;99777.56;6035564;23;97230;-87
2022/08/20 08:00:07;;;;;;;26.58;23.05;;;;;;;26.46;61.38;99778.91;6009136;23;98381;-85
2022/08/20 08:02:35;;;;;;;24.15;21.33;;;;;;;26.47;60.75;99777.06;6031787;23;97786;-84
2022/08/20 08:05:00;;;;;;;28.27;22.63;;;;;;;26.54;60.67;99799.66;6007608;23;97232;-85
2022/08/20 08:07:26;;;;;;;28.52;22.05;;;;;;;26.58;60.06;99800.97;6006150;23;96915;-84
2022/08/20 08:09:52;;;;;;;26.40;22.98;;;;;;;26.44;60.45;99780.94;5981636;23;101581;-84
2022/08/20 08:12:17;;;;;;;27.15;23.08;;;;;;;26.67;60.06;99791.91;6029476;23;98303;-85
2022/08/20 08:14:45;;;;;;;28.00;21.88;;;;;;;26.95;59.83;99805.00;6006717;23;97104;-84
2022/08/20 08:17:11;;;;;;;23.52;20.70;;;;;;;27.36;58.65;99794.16;6006316;23;97043;-82
2022/08/20 08:19:42;;;;;;;23.05;20.65;;;;;;;28.10;56.57;99787.44;6006513;23;97591;-84
2022/08/20 08:22:11;;;;;;;23.55;20.33;;;;;;;29.32;53.83;99784.72;6032075;23;97769;-86
2022/08/20 08:24:38;;;;;;;22.08;19.75;;;;;;;30.36;51.25;99779.13;5984529;23;97161;-85
2022/08/20 08:27:03;;;;;;;22.80;20.42;;;;;;;30.12;51.33;99774.91;5987135;23;97035;-87
2022/08/20 08:29:29;;;;;;;25.05;21.90;;;;;;;30.01;50.66;99773.53;5986646;23;99686;-86
2022/08/20 08:31:55;;;;;;;24.23;21.63;;;;;;;29.90;51.08;99771.31;6003567;23;101074;-87
2022/08/20 08:34:24;;;;;;;22.98;19.98;;;;;;;30.14;50.83;99773.69;6016332;23;97070;-82
2022/08/20 08:36:50;;;;;;;23.70;20.88;;;;;;;30.71;50.36;99779.22;6040333;23;97164;-82
2022/08/20 08:39:16;;;;;;;21.75;19.65;;;;;;;31.44;47.95;99777.88;6036903;23;101026;-86
2022/08/20 08:41:48;;;;;;;24.83;19.20;;;;;;;31.87;47.16;99783.06;6036356;23;97314;-80
2022/08/20 08:44:22;;;;;;;24.88;19.80;;;;;;;33.03;45.72;99774.69;6038268;23;96780;-78
2022/08/20 08:47:20;;;;;;;23.23;20.17;;;;;;;33.67;43.31;99781.22;6037523;23;97187;-79
2022/08/20 08:49:46;;;;;;;19.73;17.85;;;;;;;33.08;44.78;99769.47;6011868;23;100831;-78
2022/08/20 08:52:21;;;;;;;26.50;19.13;;;;;;;33.44;43.50;99770.00;6060978;23;101190;-79
2022/08/20 08:54:49;;;;;;;35.10;22.13;;;;;;;33.36;44.43;99761.00;6035543;23;97185;-78
2022/08/20 08:57:15;;;;;;;22.42;19.00;;;;;;;33.17;44.21;99753.75;6011989;23;97041;-83
2022/08/20 08:59:41;;;;;;;20.63;17.73;;;;;;;33.54;43.54;99771.25;6036280;23;101787;-79
2022/08/20 09:02:06;;;;;;;20.65;17.02;;;;;;;33.92;43.59;99773.16;6036954;23;101093;-91
2022/08/20 09:04:35;;;;;;;18.33;16.27;;;;;;;34.55;42.44;99775.09;6039279;23;97234;-86
2022/08/20 09:07:03;;;;;;;18.83;15.90;;;;;;;34.35;41.83;99760.75;6061773;23;97139;-81
2022/08/20 09:09:31;;;;;;;18.95;17.05;;;;;;;34.33;41.72;99771.88;6035526;23;100936;-84
2022/08/20 09:12:05;;;;;;;20.88;17.65;;;;;;;34.66;41.32;99774.38;6013205;23;101207;-83
2022/08/20 09:14:30;;;;;;;20.17;18.10;;;;;;;34.30;41.70;99774.19;6061080;23;97184;-81
2022/08/20 09:16:56;;;;;;;20.35;17.40;;;;;;;33.56;42.91;99768.28;6086172;23;97129;-80
2022/08/20 09:19:21;;;;;;;18.58;16.58;;;;;;;32.64;45.29;99767.41;6035665;23;101140;-80
2022/08/20 09:21:47;;;;;;;17.55;15.80;;;;;;;34.23;41.86;99757.91;6086217;23;98556;-80
2022/08/20 09:24:12;;;;;;;19.75;17.35;;;;;;;33.73;42.38;99765.94;6036807;23;97238;-80
2022/08/20 09:26:38;;;;;;;18.90;16.75;;;;;;;32.37;45.02;99756.47;6036188;23;97473;-78
2022/08/20 09:29:03;;;;;;;21.08;16.95;;;;;;;31.98;46.03;99765.41;6035556;23;101886;-78
2022/08/20 09:31:29;;;;;;;19.52;17.52;;;;;;;31.72;46.42;99758.00;5999212;23;101140;-79
2022/08/20 09:33:54;;;;;;;26.05;16.98;;;;;;;31.62;47.01;99749.38;5983039;23;96811;-79
2022/08/20 09:36:20;;;;;;;25.25;19.83;;;;;;;31.36;47.87;99767.22;6007491;23;97233;-79
2022/08/20 09:38:45;;;;;;;31.13;24.75;;;;;;;31.37;48.14;99777.03;5982012;23;101373;-78
2022/08/20 09:41:11;;;;;;;25.30;21.40;;;;;;;31.35;48.23;99762.81;5983260;23;100589;-78
2022/08/20 09:43:37;;;;;;;27.55;21.52;;;;;;;31.02;49.04;99770.75;6007265;23;97234;-79
2022/08/20 09:46:02;;;;;;;27.13;21.02;;;;;;;30.75;49.57;99772.38;6007109;23;97268;-78
2022/08/20 09:48:28;;;;;;;20.63;17.67;;;;;;;30.45;50.26;99765.25;6008038;23;97408;-78
2022/08/20 09:50:53;;;;;;;22.42;20.05;;;;;;;30.03;50.44;99757.97;6006792;23;97233;-78
2022/08/20 09:53:20;;;;;;;21.73;19.20;;;;;;;29.83;51.29;99773.13;6009502;23;97094;-79
2022/08/20 09:55:49;;;;;;;25.65;20.25;;;;;;;29.62;51.88;99780.16;6008167;23;96774;-79
2022/08/20 09:58:34;;;;;;;22.02;18.52;;;;;;;29.63;52.35;99767.47;6009115;23;100792;-77
2022/08/20 10:01:05;;;;;;;21.42;19.13;;;;;;;29.60;52.11;99771.38;6008219;23;99326;-78
2022/08/20 10:03:31;;;;;;;23.45;19.52;;;;;;;29.32;52.59;99769.34;5984619;23;96762;-78
2022/08/20 10:05:56;;;;;;;24.73;20.88;;;;;;;29.12;53.04;99773.66;6006464;23;97321;-78
2022/08/20 10:08:21;;;;;;;21.25;19.10;;;;;;;29.05;53.41;99757.31;5984236;23;101562;-78
2022/08/20 10:10:47;;;;;;;23.13;20.42;;;;;;;29.09;52.95;99776.72;6007101;23;100944;-78
2022/08/20 10:13:12;;;;;;;21.25;19.20;;;;;;;28.98;53.92;99763.63;6008646;23;97267;-78
2022/08/20 10:15:38;;;;;;;22.48;20.05;;;;;;;29.15;53.53;99777.81;6031374;23;97326;-78
2022/08/20 10:18:06;;;;;;;24.20;20.58;;;;;;;29.33;52.56;99779.13;6007472;23;101362;-78
2022/08/20 10:20:32;;;;;;;22.02;19.73;;;;;;;29.56;52.50;99778.19;6007913;23;97582;-78
2022/08/20 10:22:57;;;;;;;21.77;19.50;;;;;;;29.78;51.69;99774.53;6007417;23;97226;-79
2022/08/20 10:25:23;;;;;;;22.50;20.13;;;;;;;29.91;51.25;99762.22;6008698;23;96966;-79
2022/08/20 10:27:48;;;;;;;23.08;19.30;;;;;;;29.84;51.42;99769.38;6007959;23;101220;-79
2022/08/20 10:30:14;;;;;;;23.13;20.58;;;;;;;29.50;51.59;99768.13;6008709;23;101038;-85
2022/08/20 10:32:40;;;;;;;21.77;19.55;;;;;;;29.59;52.08;99769.69;6033776;23;97906;-83
2022/08/20 10:35:05;;;;;;;27.58;19.17;;;;;;;29.54;52.05;99772.13;6037403;23;97197;-83
2022/08/20 10:37:33;;;;;;;22.00;19.63;;;;;;;29.16;52.98;99768.69;6037441;23;100904;-84
2022/08/20 10:39:59;;;;;;;26.58;21.40;;;;;;;28.99;53.62;99771.53;6037774;23;100938;-84
2022/08/20 10:42:24;;;;;;;31.15;20.17;;;;;;;29.11;53.47;99774.66;6038239;23;96751;-86
2022/08/20 10:44:50;;;;;;;25.10;19.42;;;;;;;29.27;52.82;99776.34;6015348;23;97174;-82
2022/08/20 10:47:25;;;;;;;22.17;18.88;;;;;;;29.28;54.01;99783.41;6062201;23;98182;-81
2022/08/20 10:49:52;;;;;;;20.52;18.48;;;;;;;29.17;53.28;99768.50;6063240;23;96580;-81
2022/08/20 10:52:18;;;;;;;21.30;18.95;;;;;;;28.98;53.81;99774.44;6013953;23;96631;-82
2022/08/20 10:54:44;;;;;;;21.33;19.13;;;;;;;29.36;53.59;99794.13;6037667;23;97123;-84
2022/08/20 10:57:20;;;;;;;20.25;18.30;;;;;;;29.40;53.30;99776.50;6061331;23;97984;-82
2022/08/20 10:59:47;;;;;;;23.42;18.88;;;;;;;29.29;53.11;99763.47;6062794;23;97457;-83
2022/08/20 11:02:13;;;;;;;21.13;18.52;;;;;;;29.19;53.74;99788.06;6039124;23;97008;-79
2022/08/20 11:04:41;;;;;;;20.58;17.92;;;;;;;29.15;53.46;99788.63;6039190;23;96988;-83
2022/08/20 11:07:16;;;;;;;25.80;19.83;;;;;;;28.85;53.98;99772.34;6038032;23;100939;-83
2022/08/20 11:09:43;;;;;;;23.80;18.15;;;;;;;29.00;53.64;99786.75;6038572;23;100377;-82
2022/08/20 11:12:09;;;;;;;21.42;19.02;;;;;;;28.71;53.97;99771.31;6037575;23;96642;-82
2022/08/20 11:14:34;;;;;;;22.65;18.55;;;;;;;28.70;54.17;99772.31;6063897;23;96770;-82
2022/08/20 11:17:00;;;;;;;22.45;16.80;;;;;;;28.73;54.28;99777.34;6038022;23;100999;-83
2022/08/20 11:19:26;;;;;;;23.52;19.05;;;;;;;28.54;54.39;99764.38;6039650;23;100176;-82
2022/08/20 11:21:51;;;;;;;19.63;17.77;;;;;;;28.72;54.16;99766.75;6037637;23;97435;-78
2022/08/20 11:24:17;;;;;;;18.88;16.88;;;;;;;28.74;53.96;99762.84;6062367;23;97296;-83